SIA237 WSSS-YMML
Flight info
| Callsign | SIA237 |
|---|---|
| Flight time | N/A |
| Altitude | 35000 |
| Route | IDBUD1B IDBUD T24 SURGA M635 ATMAP/N0492F370 A576 CIN DCT GOMAP DCT AGAGO A461 LEC/N0476F390 H119 ARBEY ARBE8A |
| Aircraft | A388/J-SDE1E2E3GHIJ1J2J4J5M1P2RWXYZ/LB1D1 |
Departure
| Time | N/A |
|---|---|
| Airport | Singapore Changi Airport (WSSS) |
Arrival
| Time | 2026-05-07 16:13 |
|---|---|
| Airport | Melbourne Airport (YMML) |
| Time | Latitude | Longitude | Altitude | Speed | Heading |
|---|---|---|---|---|---|
| 2026-05-07 14:31 | -27.43326 | 135.62442 | 39410 ft | 545 kts | 129° |
| 2026-05-07 14:32 | -27.48040 | 135.69165 | 39414 ft | 551 kts | 129° |
| 2026-05-07 14:32 | -27.52788 | 135.75945 | 39409 ft | 556 kts | 129° |
| 2026-05-07 14:33 | -27.57606 | 135.82838 | 39414 ft | 556 kts | 129° |
| 2026-05-07 14:33 | -27.62386 | 135.89688 | 39414 ft | 556 kts | 129° |
| 2026-05-07 14:34 | -27.67127 | 135.96492 | 39411 ft | 555 kts | 129° |
| 2026-05-07 14:34 | -27.71901 | 136.03355 | 39410 ft | 555 kts | 129° |
| 2026-05-07 14:35 | -27.76665 | 136.10213 | 39411 ft | 555 kts | 129° |
| 2026-05-07 14:35 | -27.81429 | 136.17082 | 39412 ft | 556 kts | 129° |
| 2026-05-07 14:36 | -27.86191 | 136.23960 | 39412 ft | 556 kts | 129° |
| 2026-05-07 14:36 | -27.90951 | 136.30845 | 39411 ft | 556 kts | 129° |
| 2026-05-07 14:37 | -27.95705 | 136.37734 | 39412 ft | 556 kts | 129° |
| 2026-05-07 14:37 | -28.02840 | 136.48086 | 39408 ft | 556 kts | 129° |
| 2026-05-07 14:38 | -28.07590 | 136.54989 | 39406 ft | 556 kts | 129° |
| 2026-05-07 14:38 | -28.12339 | 136.61900 | 39411 ft | 556 kts | 129° |
| 2026-05-07 14:39 | -28.17084 | 136.68816 | 39414 ft | 556 kts | 129° |
| 2026-05-07 14:39 | -28.22212 | 136.75329 | 39415 ft | 552 kts | 141° |
| 2026-05-07 14:40 | -28.28376 | 136.80427 | 39418 ft | 546 kts | 152° |
| 2026-05-07 14:40 | -28.34872 | 136.84899 | 39418 ft | 546 kts | 152° |
| 2026-05-07 14:41 | -28.41365 | 136.89397 | 39418 ft | 547 kts | 152° |
| 2026-05-07 14:41 | -28.47858 | 136.93889 | 39418 ft | 546 kts | 152° |
| 2026-05-07 14:42 | -28.54347 | 136.98381 | 39426 ft | 546 kts | 152° |
| 2026-05-07 14:42 | -28.60829 | 137.02875 | 39425 ft | 545 kts | 151° |
| 2026-05-07 14:43 | -28.67300 | 137.07368 | 39427 ft | 545 kts | 151° |
| 2026-05-07 14:43 | -28.73762 | 137.11861 | 39428 ft | 544 kts | 151° |
| 2026-05-07 14:44 | -28.80221 | 137.16358 | 39428 ft | 544 kts | 151° |
| 2026-05-07 14:44 | -28.86679 | 137.20861 | 39432 ft | 544 kts | 151° |
| 2026-05-07 14:45 | -28.93124 | 137.25363 | 39432 ft | 543 kts | 151° |
| 2026-05-07 14:45 | -28.99520 | 137.29837 | 39435 ft | 543 kts | 151° |
| 2026-05-07 14:46 | -29.05955 | 137.34344 | 39436 ft | 543 kts | 151° |
| 2026-05-07 14:46 | -29.12399 | 137.38864 | 39434 ft | 545 kts | 151° |
| 2026-05-07 14:47 | -29.18850 | 137.43396 | 39435 ft | 543 kts | 151° |
| 2026-05-07 14:47 | -29.25289 | 137.47926 | 39441 ft | 543 kts | 151° |
| 2026-05-07 14:48 | -29.31723 | 137.52460 | 39441 ft | 542 kts | 151° |
| 2026-05-07 14:48 | -29.38145 | 137.56992 | 39437 ft | 542 kts | 151° |
| 2026-05-07 14:49 | -29.44565 | 137.61529 | 39440 ft | 542 kts | 151° |
| 2026-05-07 14:49 | -29.50974 | 137.66066 | 39444 ft | 541 kts | 151° |
| 2026-05-07 14:50 | -29.57379 | 137.70606 | 39446 ft | 541 kts | 151° |
| 2026-05-07 14:50 | -29.63775 | 137.75147 | 39447 ft | 541 kts | 151° |
| 2026-05-07 14:51 | -29.70177 | 137.79699 | 39445 ft | 540 kts | 151° |
| 2026-05-07 14:51 | -29.76564 | 137.84247 | 39448 ft | 540 kts | 151° |
| 2026-05-07 14:52 | -29.82948 | 137.88800 | 39451 ft | 540 kts | 151° |
| 2026-05-07 14:52 | -29.89332 | 137.93359 | 39449 ft | 540 kts | 151° |
| 2026-05-07 14:53 | -29.95720 | 137.97929 | 39448 ft | 540 kts | 151° |
| 2026-05-07 14:53 | -30.02095 | 138.02497 | 39452 ft | 539 kts | 151° |
| 2026-05-07 14:54 | -30.08460 | 138.07065 | 39455 ft | 539 kts | 151° |
| 2026-05-07 14:54 | -30.14820 | 138.11635 | 39455 ft | 538 kts | 151° |
| 2026-05-07 14:55 | -30.21169 | 138.16205 | 39457 ft | 537 kts | 151° |
| 2026-05-07 14:55 | -30.27468 | 138.20746 | 39455 ft | 537 kts | 151° |
| 2026-05-07 14:56 | -30.33805 | 138.25321 | 39457 ft | 536 kts | 151° |
| 2026-05-07 14:56 | -30.40139 | 138.29901 | 39460 ft | 536 kts | 151° |
| 2026-05-07 14:57 | -30.46466 | 138.34483 | 39461 ft | 536 kts | 151° |
| 2026-05-07 14:57 | -30.52781 | 138.39064 | 39463 ft | 535 kts | 151° |
| 2026-05-07 14:58 | -30.59049 | 138.43718 | 39468 ft | 537 kts | 147° |
| 2026-05-07 14:58 | -30.64791 | 138.49292 | 39458 ft | 538 kts | 141° |
| 2026-05-07 14:59 | -30.70408 | 138.55055 | 39454 ft | 539 kts | 141° |
| 2026-05-07 14:59 | -30.76029 | 138.60809 | 39455 ft | 538 kts | 141° |
| 2026-05-07 15:00 | -30.81636 | 138.66571 | 39481 ft | 538 kts | 141° |
| 2026-05-07 15:00 | -30.87238 | 138.72341 | 39486 ft | 538 kts | 141° |
| 2026-05-07 15:01 | -30.92834 | 138.78119 | 39470 ft | 539 kts | 141° |
| 2026-05-07 15:01 | -30.98435 | 138.83913 | 39471 ft | 538 kts | 141° |
| 2026-05-07 15:02 | -31.04034 | 138.89714 | 39472 ft | 538 kts | 141° |
| 2026-05-07 15:02 | -31.09618 | 138.95511 | 39476 ft | 537 kts | 141° |
| 2026-05-07 15:03 | -31.15202 | 139.01315 | 39475 ft | 538 kts | 141° |
| 2026-05-07 15:03 | -31.20743 | 139.07084 | 39480 ft | 537 kts | 141° |
| 2026-05-07 15:04 | -31.26306 | 139.12886 | 39469 ft | 535 kts | 141° |
| 2026-05-07 15:04 | -31.31852 | 139.18680 | 39472 ft | 535 kts | 141° |
| 2026-05-07 15:05 | -31.37393 | 139.24478 | 39463 ft | 534 kts | 141° |
| 2026-05-07 15:05 | -31.42027 | 139.29333 | 39467 ft | 534 kts | 141° |
| 2026-05-07 15:06 | -31.47553 | 139.35133 | 39470 ft | 533 kts | 141° |
| 2026-05-07 15:06 | -31.53070 | 139.40934 | 39467 ft | 533 kts | 141° |
| 2026-05-07 15:07 | -31.58578 | 139.46734 | 39464 ft | 532 kts | 141° |
| 2026-05-07 15:07 | -31.64077 | 139.52534 | 39471 ft | 531 kts | 141° |
| 2026-05-07 15:08 | -31.69567 | 139.58335 | 39467 ft | 531 kts | 141° |
| 2026-05-07 15:08 | -31.75052 | 139.64139 | 39465 ft | 531 kts | 141° |
| 2026-05-07 15:09 | -31.80532 | 139.69948 | 39468 ft | 530 kts | 140° |
| 2026-05-07 15:09 | -31.86001 | 139.75755 | 39469 ft | 530 kts | 140° |
| 2026-05-07 15:10 | -31.91435 | 139.81534 | 39469 ft | 530 kts | 140° |
| 2026-05-07 15:10 | -31.96894 | 139.87350 | 39467 ft | 529 kts | 140° |
| 2026-05-07 15:11 | -32.02382 | 139.93207 | 39473 ft | 528 kts | 140° |
| 2026-05-07 15:11 | -32.07787 | 139.98985 | 39473 ft | 527 kts | 140° |
| 2026-05-07 15:12 | -32.13216 | 140.04798 | 39472 ft | 527 kts | 140° |
| 2026-05-07 15:12 | -32.18636 | 140.10610 | 39467 ft | 526 kts | 140° |
| 2026-05-07 15:13 | -32.24048 | 140.16425 | 39469 ft | 526 kts | 140° |
| 2026-05-07 15:13 | -32.29448 | 140.22236 | 39469 ft | 525 kts | 140° |
| 2026-05-07 15:14 | -32.34839 | 140.28047 | 39469 ft | 524 kts | 140° |
| 2026-05-07 15:14 | -32.40222 | 140.33860 | 39464 ft | 523 kts | 140° |
| 2026-05-07 15:15 | -32.45557 | 140.39630 | 39465 ft | 523 kts | 140° |
| 2026-05-07 15:15 | -32.50917 | 140.45438 | 39463 ft | 521 kts | 140° |
| 2026-05-07 15:16 | -32.56263 | 140.51240 | 39461 ft | 521 kts | 140° |
| 2026-05-07 15:16 | -32.61598 | 140.57039 | 39457 ft | 520 kts | 140° |
| 2026-05-07 15:17 | -32.66917 | 140.62831 | 39456 ft | 518 kts | 140° |
| 2026-05-07 15:17 | -32.72220 | 140.68615 | 39457 ft | 517 kts | 140° |
| 2026-05-07 15:18 | -32.77512 | 140.74397 | 39454 ft | 516 kts | 140° |
| 2026-05-07 15:18 | -32.82794 | 140.80178 | 39455 ft | 516 kts | 140° |
| 2026-05-07 15:19 | -32.88066 | 140.85958 | 39449 ft | 515 kts | 139° |
| 2026-05-07 15:19 | -32.93330 | 140.91739 | 39435 ft | 514 kts | 139° |
| 2026-05-07 15:20 | -32.98551 | 140.97482 | 39435 ft | 514 kts | 139° |
| 2026-05-07 15:20 | -33.03802 | 141.03267 | 39436 ft | 515 kts | 139° |
| 2026-05-07 15:21 | -33.09048 | 141.09058 | 39441 ft | 514 kts | 139° |
| 2026-05-07 15:21 | -33.14290 | 141.14854 | 39443 ft | 514 kts | 139° |
| 2026-05-07 15:22 | -33.19532 | 141.20659 | 39438 ft | 514 kts | 139° |
| 2026-05-07 15:22 | -33.24766 | 141.26466 | 39440 ft | 514 kts | 139° |
| 2026-05-07 15:23 | -33.29996 | 141.32278 | 39438 ft | 513 kts | 139° |
| 2026-05-07 15:23 | -33.35220 | 141.38094 | 39433 ft | 513 kts | 139° |
| 2026-05-07 15:24 | -33.40441 | 141.43916 | 39433 ft | 513 kts | 139° |
| 2026-05-07 15:24 | -33.45654 | 141.49739 | 39430 ft | 512 kts | 139° |
| 2026-05-07 15:25 | -33.50864 | 141.55569 | 39428 ft | 512 kts | 139° |
| 2026-05-07 15:25 | -33.56034 | 141.61365 | 39425 ft | 512 kts | 139° |
| 2026-05-07 15:26 | -33.61232 | 141.67202 | 39425 ft | 512 kts | 140° |
| 2026-05-07 15:26 | -33.66420 | 141.73038 | 39424 ft | 511 kts | 140° |
| 2026-05-07 15:27 | -33.71601 | 141.78875 | 39419 ft | 510 kts | 140° |
| 2026-05-07 15:27 | -33.76771 | 141.84711 | 39420 ft | 510 kts | 140° |
| 2026-05-07 15:28 | -33.81929 | 141.90543 | 39422 ft | 509 kts | 140° |
| 2026-05-07 15:28 | -33.87085 | 141.96382 | 39417 ft | 509 kts | 140° |
| 2026-05-07 15:29 | -33.92235 | 142.02226 | 39409 ft | 509 kts | 140° |
| 2026-05-07 15:29 | -33.97386 | 142.08081 | 39413 ft | 509 kts | 140° |
| 2026-05-07 15:30 | -34.02528 | 142.13936 | 39410 ft | 509 kts | 140° |
| 2026-05-07 15:30 | -34.07670 | 142.19800 | 39410 ft | 509 kts | 140° |
| 2026-05-07 15:31 | -34.12807 | 142.25671 | 39406 ft | 508 kts | 140° |
| 2026-05-07 15:31 | -34.17942 | 142.31548 | 39401 ft | 509 kts | 140° |
| 2026-05-07 15:32 | -34.23037 | 142.37390 | 39405 ft | 509 kts | 140° |
| 2026-05-07 15:32 | -34.28172 | 142.43288 | 39399 ft | 509 kts | 140° |
| 2026-05-07 15:33 | -34.33306 | 142.49195 | 39401 ft | 510 kts | 140° |
| 2026-05-07 15:33 | -34.38445 | 142.55120 | 39396 ft | 511 kts | 140° |
| 2026-05-07 15:34 | -34.43584 | 142.61054 | 39397 ft | 511 kts | 140° |
| 2026-05-07 15:34 | -34.48730 | 142.67007 | 39391 ft | 511 kts | 140° |
| 2026-05-07 15:35 | -34.53874 | 142.72969 | 39389 ft | 512 kts | 140° |
| 2026-05-07 15:35 | -34.59023 | 142.78947 | 39388 ft | 512 kts | 140° |
| 2026-05-07 15:36 | -34.64167 | 142.84931 | 39382 ft | 512 kts | 140° |
| 2026-05-07 15:36 | -34.69313 | 142.90927 | 39383 ft | 513 kts | 140° |
| 2026-05-07 15:37 | -34.74461 | 142.96937 | 39378 ft | 513 kts | 140° |
| 2026-05-07 15:37 | -34.79612 | 143.02960 | 39375 ft | 514 kts | 140° |
| 2026-05-07 15:38 | -34.84764 | 143.08991 | 39370 ft | 514 kts | 140° |
| 2026-05-07 15:38 | -34.89919 | 143.15034 | 39371 ft | 515 kts | 140° |
| 2026-05-07 15:39 | -34.95083 | 143.21088 | 39359 ft | 514 kts | 142° |
| 2026-05-07 15:39 | -35.00794 | 143.26186 | 39362 ft | 506 kts | 153° |
| 2026-05-07 15:40 | -35.06798 | 143.30690 | 39362 ft | 507 kts | 153° |
| 2026-05-07 15:40 | -35.12793 | 143.35223 | 39351 ft | 507 kts | 153° |
| 2026-05-07 15:41 | -35.18799 | 143.39763 | 39354 ft | 507 kts | 153° |
| 2026-05-07 15:41 | -35.24765 | 143.44277 | 39353 ft | 508 kts | 153° |
| 2026-05-07 15:42 | -35.30772 | 143.48830 | 39348 ft | 508 kts | 153° |
| 2026-05-07 15:42 | -35.36775 | 143.53388 | 39343 ft | 506 kts | 153° |
| 2026-05-07 15:43 | -35.39721 | 143.55634 | 39343 ft | 492 kts | 153° |
| 2026-05-07 15:43 | -35.42595 | 143.57828 | 39342 ft | 482 kts | 154° |
| 2026-05-07 15:43 | -35.48306 | 143.62173 | 39324 ft | 484 kts | 154° |
| 2026-05-07 15:44 | -35.51163 | 143.64350 | 39148 ft | 481 kts | 154° |
| 2026-05-07 15:44 | -35.53989 | 143.66509 | 38897 ft | 476 kts | 154° |
| 2026-05-07 15:44 | -35.56797 | 143.68656 | 38619 ft | 475 kts | 154° |
| 2026-05-07 15:44 | -35.59602 | 143.70799 | 38336 ft | 476 kts | 154° |
| 2026-05-07 15:45 | -35.62416 | 143.72951 | 38061 ft | 477 kts | 154° |
| 2026-05-07 15:45 | -35.65234 | 143.75109 | 37787 ft | 477 kts | 154° |
| 2026-05-07 15:45 | -35.68050 | 143.77269 | 37336 ft | 477 kts | 154° |
| 2026-05-07 15:45 | -35.70876 | 143.79436 | 36604 ft | 479 kts | 154° |
| 2026-05-07 15:46 | -35.76576 | 143.83813 | 34790 ft | 487 kts | 154° |
| 2026-05-07 15:46 | -35.79459 | 143.86030 | 33928 ft | 489 kts | 155° |
| 2026-05-07 15:46 | -35.82327 | 143.88242 | 33336 ft | 483 kts | 155° |
| 2026-05-07 15:47 | -35.85143 | 143.90422 | 32989 ft | 472 kts | 155° |
| 2026-05-07 15:47 | -35.87904 | 143.92557 | 32414 ft | 467 kts | 155° |
| 2026-05-07 15:47 | -35.90645 | 143.94673 | 31858 ft | 462 kts | 155° |
| 2026-05-07 15:47 | -35.93318 | 143.96738 | 31302 ft | 457 kts | 155° |
| 2026-05-07 15:48 | -35.96036 | 143.98838 | 30746 ft | 453 kts | 155° |
| 2026-05-07 15:48 | -35.98658 | 144.00867 | 30178 ft | 449 kts | 155° |
| 2026-05-07 15:48 | -36.01287 | 144.02903 | 29608 ft | 443 kts | 155° |
| 2026-05-07 15:48 | -36.03914 | 144.04940 | 29061 ft | 437 kts | 155° |
| 2026-05-07 15:49 | -36.06433 | 144.06895 | 28532 ft | 431 kts | 155° |
| 2026-05-07 15:49 | -36.08953 | 144.08852 | 27996 ft | 425 kts | 155° |
| 2026-05-07 15:49 | -36.11437 | 144.10781 | 27467 ft | 419 kts | 154° |
| 2026-05-07 15:49 | -36.13895 | 144.12692 | 26942 ft | 414 kts | 154° |
| 2026-05-07 15:50 | -36.16318 | 144.14577 | 26428 ft | 409 kts | 154° |
| 2026-05-07 15:50 | -36.18712 | 144.16442 | 25996 ft | 403 kts | 154° |
| 2026-05-07 15:50 | -36.21055 | 144.18269 | 25583 ft | 396 kts | 154° |
| 2026-05-07 15:50 | -36.23374 | 144.20077 | 25060 ft | 392 kts | 154° |
| 2026-05-07 15:51 | -36.25671 | 144.21867 | 24535 ft | 389 kts | 154° |
| 2026-05-07 15:51 | -36.27954 | 144.23648 | 24028 ft | 386 kts | 154° |
| 2026-05-07 15:51 | -36.30218 | 144.25417 | 23457 ft | 383 kts | 154° |
| 2026-05-07 15:51 | -36.32459 | 144.27170 | 22949 ft | 378 kts | 154° |
| 2026-05-07 15:52 | -36.34667 | 144.28899 | 22442 ft | 373 kts | 154° |
| 2026-05-07 15:52 | -36.36852 | 144.30611 | 21940 ft | 370 kts | 154° |
| 2026-05-07 15:52 | -36.39014 | 144.32305 | 21445 ft | 366 kts | 154° |
| 2026-05-07 15:52 | -36.41160 | 144.33987 | 20939 ft | 363 kts | 154° |
| 2026-05-07 15:53 | -36.43284 | 144.35653 | 20461 ft | 360 kts | 154° |
| 2026-05-07 15:53 | -36.45394 | 144.37309 | 19974 ft | 358 kts | 154° |
| 2026-05-07 15:53 | -36.47490 | 144.38955 | 19485 ft | 356 kts | 154° |
| 2026-05-07 15:53 | -36.49575 | 144.40594 | 19010 ft | 354 kts | 154° |
| 2026-05-07 15:54 | -36.51648 | 144.42224 | 18509 ft | 352 kts | 154° |
| 2026-05-07 15:54 | -36.53710 | 144.43847 | 18013 ft | 349 kts | 154° |
| 2026-05-07 15:54 | -36.55754 | 144.45458 | 17535 ft | 346 kts | 154° |
| 2026-05-07 15:54 | -36.57776 | 144.47054 | 17071 ft | 343 kts | 154° |
| 2026-05-07 15:55 | -36.59779 | 144.48633 | 16598 ft | 340 kts | 154° |
| 2026-05-07 15:55 | -36.61767 | 144.50203 | 16138 ft | 337 kts | 154° |
| 2026-05-07 15:55 | -36.63742 | 144.51762 | 15684 ft | 334 kts | 154° |
| 2026-05-07 15:55 | -36.65698 | 144.53307 | 15234 ft | 332 kts | 154° |
| 2026-05-07 15:56 | -36.67642 | 144.54844 | 14781 ft | 330 kts | 154° |
| 2026-05-07 15:56 | -36.68921 | 144.55855 | 14490 ft | 328 kts | 154° |
| 2026-05-07 15:56 | -36.70844 | 144.57377 | 14031 ft | 326 kts | 154° |
| 2026-05-07 15:56 | -36.72751 | 144.58888 | 13565 ft | 323 kts | 154° |
| 2026-05-07 15:57 | -36.74638 | 144.60384 | 13130 ft | 319 kts | 154° |
| 2026-05-07 15:57 | -36.76501 | 144.61861 | 12702 ft | 316 kts | 154° |
| 2026-05-07 15:57 | -36.78349 | 144.63327 | 12126 ft | 316 kts | 154° |
| 2026-05-07 15:57 | -36.80288 | 144.64613 | 11531 ft | 314 kts | 163° |
| 2026-05-07 15:58 | -36.82327 | 144.65480 | 11218 ft | 308 kts | 171° |
| 2026-05-07 15:58 | -36.84415 | 144.65985 | 10825 ft | 303 kts | 175° |
| 2026-05-07 15:58 | -36.86472 | 144.66424 | 10513 ft | 295 kts | 175° |
| 2026-05-07 15:58 | -36.88446 | 144.66871 | 10407 ft | 282 kts | 175° |
| 2026-05-07 15:59 | -36.90331 | 144.67299 | 10311 ft | 269 kts | 175° |
| 2026-05-07 15:59 | -36.92128 | 144.67704 | 10196 ft | 257 kts | 175° |
| 2026-05-07 15:59 | -36.93852 | 144.68088 | 10076 ft | 246 kts | 176° |
| 2026-05-07 15:59 | -36.95511 | 144.68455 | 9823 ft | 240 kts | 176° |
| 2026-05-07 16:00 | -36.97141 | 144.68812 | 9596 ft | 235 kts | 176° |
| 2026-05-07 16:00 | -36.98739 | 144.69163 | 9351 ft | 231 kts | 176° |
| 2026-05-07 16:00 | -37.00307 | 144.69508 | 9113 ft | 227 kts | 176° |
| 2026-05-07 16:00 | -37.01858 | 144.69849 | 8885 ft | 227 kts | 176° |
| 2026-05-07 16:01 | -37.03407 | 144.70188 | 8642 ft | 226 kts | 176° |
| 2026-05-07 16:01 | -37.04958 | 144.70530 | 8405 ft | 226 kts | 176° |
| 2026-05-07 16:01 | -37.06502 | 144.70872 | 8175 ft | 226 kts | 176° |
| 2026-05-07 16:01 | -37.08065 | 144.71216 | 8048 ft | 234 kts | 176° |
| 2026-05-07 16:02 | -37.09701 | 144.71576 | 8037 ft | 242 kts | 176° |
| 2026-05-07 16:02 | -37.11356 | 144.71943 | 7899 ft | 243 kts | 176° |
| 2026-05-07 16:02 | -37.13036 | 144.72320 | 7377 ft | 249 kts | 174° |
| 2026-05-07 16:02 | -37.14744 | 144.72713 | 6938 ft | 250 kts | 175° |
| 2026-05-07 16:03 | -37.16460 | 144.73089 | 6734 ft | 250 kts | 177° |
| 2026-05-07 16:03 | -37.18156 | 144.73456 | 6380 ft | 247 kts | 176° |
| 2026-05-07 16:03 | -37.19844 | 144.73891 | 6005 ft | 246 kts | 174° |
| 2026-05-07 16:03 | -37.21486 | 144.74338 | 5610 ft | 238 kts | 174° |
| 2026-05-07 16:04 | -37.23106 | 144.74798 | 5498 ft | 241 kts | 174° |
| 2026-05-07 16:04 | -37.24756 | 144.75304 | 5279 ft | 249 kts | 168° |
| 2026-05-07 16:04 | -37.26381 | 144.76006 | 5063 ft | 247 kts | 171° |
| 2026-05-07 16:04 | -37.28013 | 144.76476 | 5034 ft | 232 kts | 176° |
| 2026-05-07 16:05 | -37.29552 | 144.76783 | 5039 ft | 216 kts | 179° |
| 2026-05-07 16:05 | -37.31009 | 144.77066 | 5039 ft | 209 kts | 180° |
| 2026-05-07 16:05 | -37.32455 | 144.77328 | 5036 ft | 211 kts | 179° |
| 2026-05-07 16:05 | -37.33911 | 144.77607 | 5029 ft | 212 kts | 178° |
| 2026-05-07 16:06 | -37.35360 | 144.77887 | 5032 ft | 208 kts | 180° |
| 2026-05-07 16:06 | -37.36795 | 144.78133 | 5025 ft | 209 kts | 178° |
| 2026-05-07 16:06 | -37.38237 | 144.78405 | 5018 ft | 207 kts | 179° |
| 2026-05-07 16:06 | -37.39634 | 144.78678 | 5018 ft | 198 kts | 179° |
| 2026-05-07 16:07 | -37.40967 | 144.78928 | 5026 ft | 188 kts | 179° |
| 2026-05-07 16:07 | -37.42216 | 144.79165 | 5013 ft | 173 kts | 180° |
| 2026-05-07 16:07 | -37.43390 | 144.79383 | 4913 ft | 171 kts | 181° |
| 2026-05-07 16:07 | -37.44575 | 144.79600 | 4647 ft | 172 kts | 180° |
| 2026-05-07 16:08 | -37.45757 | 144.79824 | 4402 ft | 171 kts | 181° |
| 2026-05-07 16:08 | -37.46926 | 144.80043 | 4164 ft | 169 kts | 181° |
| 2026-05-07 16:08 | -37.48093 | 144.80261 | 3929 ft | 169 kts | 181° |
| 2026-05-07 16:08 | -37.49247 | 144.80480 | 3704 ft | 167 kts | 182° |
| 2026-05-07 16:09 | -37.50393 | 144.80693 | 3493 ft | 163 kts | 181° |
| 2026-05-07 16:09 | -37.51467 | 144.80901 | 3267 ft | 149 kts | 182° |
| 2026-05-07 16:09 | -37.52465 | 144.81084 | 3064 ft | 143 kts | 183° |
| 2026-05-07 16:09 | -37.53454 | 144.81264 | 2863 ft | 145 kts | 183° |
| 2026-05-07 16:10 | -37.54454 | 144.81454 | 2673 ft | 146 kts | 183° |
| 2026-05-07 16:10 | -37.55461 | 144.81642 | 2471 ft | 147 kts | 182° |
| 2026-05-07 16:10 | -37.56470 | 144.81832 | 2268 ft | 148 kts | 182° |
| 2026-05-07 16:10 | -37.57484 | 144.82020 | 2060 ft | 143 kts | 184° |
| 2026-05-07 16:11 | -37.58446 | 144.82202 | 1866 ft | 140 kts | 183° |
| 2026-05-07 16:11 | -37.59411 | 144.82380 | 1677 ft | 141 kts | 181° |
| 2026-05-07 16:11 | -37.60386 | 144.82570 | 1472 ft | 142 kts | 180° |
| 2026-05-07 16:11 | -37.61361 | 144.82752 | 1265 ft | 142 kts | 179° |
| 2026-05-07 16:12 | -37.62358 | 144.82944 | 1072 ft | 148 kts | 178° |
| 2026-05-07 16:12 | -37.63380 | 144.83132 | 865 ft | 144 kts | 178° |
| 2026-05-07 16:12 | -37.64375 | 144.83327 | 676 ft | 147 kts | 178° |
| 2026-05-07 16:12 | -37.65376 | 144.83511 | 477 ft | 145 kts | 179° |
| 2026-05-07 16:13 | -37.66301 | 144.83672 | 411 ft | 114 kts | 173° |
| 2026-05-07 16:13 | -37.66857 | 144.83776 | 396 ft | 45 kts | 170° |
| 2026-05-07 16:13 | -37.67033 | 144.83857 | 389 ft | 21 kts | 145° |
| 2026-05-07 16:13 | -37.67135 | 144.83959 | 386 ft | 15 kts | 141° |
| 2026-05-07 16:14 | -37.67205 | 144.84034 | 384 ft | 15 kts | 130° |
| 2026-05-07 16:14 | -37.67224 | 144.84077 | 383 ft | 5 kts | 107° |
| 2026-05-07 16:14 | -37.67224 | 144.84123 | 384 ft | 7 kts | 86° |
| 2026-05-07 16:14 | -37.67216 | 144.84198 | 385 ft | 9 kts | 64° |
| 2026-05-07 16:15 | -37.67171 | 144.84246 | 387 ft | 8 kts | 18° |
| 2026-05-07 16:15 | -37.67113 | 144.84252 | 388 ft | 9 kts | 353° |
| 2026-05-07 16:15 | -37.67039 | 144.84239 | 390 ft | 12 kts | 351° |
| 2026-05-07 16:15 | -37.66946 | 144.84221 | 392 ft | 15 kts | 352° |
| 2026-05-07 16:16 | -37.66843 | 144.84202 | 394 ft | 14 kts | 352° |
| 2026-05-07 16:16 | -37.66760 | 144.84187 | 397 ft | 9 kts | 352° |
| 2026-05-07 16:16 | -37.66717 | 144.84206 | 398 ft | 8 kts | 56° |
| 2026-05-07 16:16 | -37.66693 | 144.84283 | 398 ft | 11 kts | 81° |
| 2026-05-07 16:17 | -37.66678 | 144.84397 | 400 ft | 15 kts | 82° |
| 2026-05-07 16:17 | -37.66666 | 144.84502 | 404 ft | 8 kts | 88° |
| 2026-05-07 16:17 | -37.66685 | 144.84529 | 400 ft | 6 kts | 165° |
| 2026-05-07 16:17 | -37.66733 | 144.84540 | 401 ft | 0 kts | 172° |
| 2026-05-07 16:18 | -37.66740 | 144.84541 | 398 ft | 2 kts | 172° |
| 2026-05-07 16:18 | -37.66746 | 144.84542 | 399 ft | 0 kts | 172° |
| 2026-05-07 16:18 | -37.66747 | 144.84542 | 400 ft | 0 kts | 172° |